Time;durP1;ratioP1;P1;durP2;ratioP2;P2;SDS_P1;SDS_P2;PMS_P1;PMS_P2;Temp;Humidity;BMP_temperature;BMP_pressure;BME280_temperature;BME280_humidity;BME280_pressure;Samples;Min_cycle;Max_cycle;Signal;HPM_P1;HPM_P2
2023/04/21 00:00:18;;;;;;;19.70;6.40;;;;;;;9.89;100.00;99899.89;105910;1257;63035;-86
2023/04/21 00:02:48;;;;;;;15.30;6.00;;;;;;;9.93;100.00;99895.93;105885;1256;60740;-87
2023/04/21 00:05:15;;;;;;;22.90;6.70;;;;;;;9.95;100.00;99894.42;105940;1257;74749;-88
2023/04/21 00:07:42;;;;;;;20.90;7.40;;;;;;;9.94;100.00;99894.48;105830;1260;64797;-87
2023/04/21 00:10:09;;;;;;;33.00;7.90;;;;;;;9.95;100.00;99890.52;106076;1254;72793;-85
2023/04/21 00:12:37;;;;;;;29.40;8.90;;;;;;;9.95;100.00;99887.10;108104;1253;61227;-85
2023/04/21 00:15:04;;;;;;;19.70;6.80;;;;;;;9.93;100.00;99886.17;107463;1254;60752;-85
2023/04/21 00:17:31;;;;;;;26.40;7.50;;;;;;;9.95;100.00;99886.02;106780;1258;74730;-87
2023/04/21 00:19:58;;;;;;;23.70;6.80;;;;;;;9.95;100.00;99882.73;107459;1253;65147;-85
2023/04/21 00:22:25;;;;;;;23.70;7.80;;;;;;;9.91;100.00;99882.10;107378;1256;72620;-89
2023/04/21 00:24:52;;;;;;;24.80;6.40;;;;;;;9.87;100.00;99877.52;106483;1258;61988;-89
2023/04/21 00:27:19;;;;;;;24.30;6.90;;;;;;;9.86;100.00;99876.55;106039;1257;61390;-88
2023/04/21 00:29:46;;;;;;;20.40;6.80;;;;;;;9.91;100.00;99877.75;106084;1255;75566;-88
2023/04/21 00:32:15;;;;;;;25.60;7.10;;;;;;;9.96;100.00;99870.64;106161;1257;64640;-88
2023/04/21 00:34:42;;;;;;;18.80;6.90;;;;;;;9.96;100.00;99873.36;105962;1262;72676;-89
2023/04/21 00:37:09;;;;;;;25.70;7.20;;;;;;;9.99;100.00;99870.95;105952;1257;61838;-88
2023/04/21 00:39:36;;;;;;;18.10;5.00;;;;;;;10.02;100.00;99870.02;106047;1257;60368;-90
2023/04/21 00:42:05;;;;;;;20.60;5.80;;;;;;;10.03;100.00;99869.98;105824;1259;74803;-88
2023/04/21 00:44:43;;;;;;;24.80;5.60;;;;;;;10.05;100.00;99867.74;106021;1254;63816;-87
2023/04/21 00:47:10;;;;;;;17.00;5.10;;;;;;;10.06;100.00;99868.30;106084;1254;73557;-88
2023/04/21 00:49:37;;;;;;;27.10;5.90;;;;;;;10.07;100.00;99867.76;106042;1257;60531;-89
2023/04/21 00:52:05;;;;;;;21.50;6.10;;;;;;;10.09;100.00;99868.30;105945;1257;61326;-88
2023/04/21 00:54:34;;;;;;;27.20;7.30;;;;;;;10.12;100.00;99866.71;105925;1257;74812;-89
2023/04/21 00:57:02;;;;;;;20.90;5.40;;;;;;;10.13;100.00;99866.94;106053;1255;64805;-88
2023/04/21 00:59:29;;;;;;;18.70;4.50;;;;;;;10.17;100.00;99865.65;105992;1266;73541;-89
2023/04/21 01:01:56;;;;;;;19.50;7.10;;;;;;;10.16;100.00;99866.24;106044;1254;62993;-88
2023/04/21 01:04:24;;;;;;;17.60;5.50;;;;;;;10.14;100.00;99862.84;105968;1254;60542;-87
2023/04/21 01:06:52;;;;;;;16.40;4.70;;;;;;;10.15;100.00;99864.04;105913;1254;73668;-88
2023/04/21 01:09:19;;;;;;;18.50;4.50;;;;;;;10.12;100.00;99860.75;105985;1257;64799;-87
2023/04/21 01:12:02;;;;;;;19.10;5.70;;;;;;;10.04;100.00;99861.46;106139;1254;74283;-90
2023/04/21 01:14:29;;;;;;;29.40;5.60;;;;;;;9.96;100.00;99858.04;106558;1258;60626;-88
2023/04/21 01:16:59;;;;;;;27.00;5.60;;;;;;;9.87;100.00;99855.54;106579;1253;60444;-88
2023/04/21 01:19:30;;;;;;;24.00;6.20;;;;;;;9.79;100.00;99854.30;106385;1254;73804;-87
2023/04/21 01:21:59;;;;;;;19.20;5.30;;;;;;;9.79;100.00;99851.32;105795;1260;64051;-87
2023/04/21 01:24:53;;;;;;;20.20;5.00;;;;;;;9.84;100.00;99852.77;105989;1257;72513;-86
2023/04/21 01:27:20;;;;;;;19.70;5.70;;;;;;;9.84;100.00;99849.98;106059;1257;62009;-87
2023/04/21 01:29:49;;;;;;;22.80;4.60;;;;;;;9.79;100.00;99847.87;106125;1258;61222;-90
2023/04/21 01:32:21;;;;;;;17.70;4.30;;;;;;;9.80;100.00;99844.98;106136;1256;73724;-88
2023/04/21 01:34:48;;;;;;;24.20;5.00;;;;;;;9.86;100.00;99847.36;106132;1257;65264;-91
2023/04/21 01:37:17;;;;;;;18.30;4.70;;;;;;;9.93;100.00;99850.22;106078;1254;73664;-88
2023/04/21 01:39:46;;;;;;;18.70;5.70;;;;;;;9.98;100.00;99846.74;106225;1254;60570;-87
2023/04/21 01:42:13;;;;;;;24.50;5.20;;;;;;;9.97;100.00;99845.20;106239;1254;60265;-86
2023/04/21 01:44:41;;;;;;;15.90;5.60;;;;;;;9.94;100.00;99845.94;106039;1254;73693;-89
2023/04/21 01:47:08;;;;;;;18.70;5.40;;;;;;;9.95;100.00;99846.41;106066;1257;64775;-88
2023/04/21 01:49:35;;;;;;;13.30;4.20;;;;;;;9.96;100.00;99847.55;106685;1255;73614;-88
2023/04/21 01:52:02;;;;;;;12.70;4.30;;;;;;;9.98;100.00;99850.39;106083;1253;63002;-90
2023/04/21 01:54:29;;;;;;;17.00;4.00;;;;;;;9.95;100.00;99849.52;106093;1254;60685;-88
2023/04/21 01:56:56;;;;;;;20.80;4.40;;;;;;;9.93;100.00;99845.48;106069;1254;76053;-88
2023/04/21 01:59:23;;;;;;;17.90;4.00;;;;;;;9.92;100.00;99842.95;106115;1254;65193;-88
2023/04/21 02:01:50;;;;;;;18.30;5.70;;;;;;;9.89;100.00;99846.67;106138;1254;74331;-90
2023/04/21 02:04:17;;;;;;;15.10;5.20;;;;;;;9.87;100.00;99846.45;105996;1254;60735;-87
2023/04/21 02:06:45;;;;;;;15.10;4.40;;;;;;;9.87;100.00;99845.56;106239;1255;61227;-89
2023/04/21 02:09:13;;;;;;;20.00;5.20;;;;;;;9.89;100.00;99847.34;106397;1253;74891;-88
2023/04/21 02:11:41;;;;;;;19.80;4.00;;;;;;;9.90;100.00;99846.88;106158;1253;63992;-90
2023/04/21 02:14:08;;;;;;;21.50;4.60;;;;;;;9.90;100.00;99840.45;106266;1253;74547;-86
2023/04/21 02:16:34;;;;;;;15.50;3.90;;;;;;;9.84;100.00;99838.23;106019;1255;62772;-87
2023/04/21 02:19:02;;;;;;;17.80;3.90;;;;;;;9.79;100.00;99840.02;106171;1254;61283;-86
2023/04/21 02:21:31;;;;;;;17.00;4.20;;;;;;;9.73;100.00;99844.59;106173;1260;74554;-90
2023/04/21 02:23:58;;;;;;;18.00;4.40;;;;;;;9.72;100.00;99841.19;106772;1257;64840;-88
2023/04/21 02:26:26;;;;;;;18.70;4.80;;;;;;;9.73;100.00;99843.16;106278;1254;74099;-89
2023/04/21 02:28:53;;;;;;;21.10;5.30;;;;;;;9.75;100.00;99844.09;105926;1258;62957;-88
2023/04/21 02:31:20;;;;;;;16.80;4.50;;;;;;;9.75;100.00;99844.13;106272;1257;60882;-89
2023/04/21 02:33:48;;;;;;;21.00;4.30;;;;;;;9.75;100.00;99841.83;106475;1254;73838;-88
2023/04/21 02:36:15;;;;;;;13.80;3.60;;;;;;;9.69;100.00;99842.58;106502;1254;63682;-90
2023/04/21 02:38:42;;;;;;;16.60;4.20;;;;;;;9.65;100.00;99839.24;106582;1254;72749;-88
2023/04/21 02:41:09;;;;;;;23.40;5.10;;;;;;;9.65;100.00;99841.83;106777;1254;61508;-89
2023/04/21 02:43:36;;;;;;;20.40;3.90;;;;;;;9.61;100.00;99838.14;106874;1254;60656;-92
2023/04/21 02:46:07;;;;;;;18.10;4.00;;;;;;;9.55;100.00;99839.21;106734;1253;76127;-91
2023/04/21 02:48:34;;;;;;;21.40;4.10;;;;;;;9.52;100.00;99839.55;107491;1256;63845;-89
2023/04/21 02:51:03;;;;;;;16.10;3.50;;;;;;;9.52;100.00;99840.62;107883;1254;72835;-89
2023/04/21 02:53:30;;;;;;;14.50;3.30;;;;;;;9.50;100.00;99837.09;107919;1257;62964;-89
2023/04/21 02:55:57;;;;;;;19.00;3.70;;;;;;;9.45;100.00;99836.55;106118;1254;61693;-89
2023/04/21 02:58:24;;;;;;;20.60;4.40;;;;;;;9.40;100.00;99839.70;106873;1254;75497;-90
2023/04/21 03:00:52;;;;;;;13.10;3.50;;;;;;;9.36;100.00;99836.84;106287;1257;63538;-89
2023/04/21 03:03:20;;;;;;;17.20;3.90;;;;;;;9.40;100.00;99836.92;106671;1257;72593;-91
2023/04/21 03:05:56;;;;;;;17.70;4.20;;;;;;;9.51;100.00;99833.55;106165;1254;63673;-88
2023/04/21 03:08:24;;;;;;;14.00;3.10;;;;;;;9.60;100.00;99834.89;106355;1254;61242;-87
2023/04/21 03:10:51;;;;;;;15.90;3.90;;;;;;;9.67;100.00;99835.90;106577;1253;73780;-93
2023/04/21 03:13:23;;;;;;;18.00;5.00;;;;;;;9.76;100.00;99836.02;106268;1256;63630;-91
2023/04/21 03:15:51;;;;;;;16.00;3.70;;;;;;;9.81;100.00;99833.38;106437;1253;73836;-89
2023/04/21 03:18:18;;;;;;;14.70;4.00;;;;;;;9.83;100.00;99836.75;106600;1254;63081;-91
2023/04/21 03:20:45;;;;;;;13.00;3.90;;;;;;;9.81;100.00;99836.87;107321;1253;61139;-90
2023/04/21 03:23:12;;;;;;;19.80;3.70;;;;;;;9.74;100.00;99835.31;108375;1253;74734;-87
2023/04/21 03:25:39;;;;;;;14.80;4.30;;;;;;;9.64;100.00;99837.02;108012;1253;64263;-87
2023/04/21 03:28:06;;;;;;;14.90;4.20;;;;;;;9.58;100.00;99838.83;107331;1252;73703;-88
2023/04/21 03:30:36;;;;;;;18.00;5.60;;;;;;;9.53;100.00;99836.39;109260;1257;61753;-88
2023/04/21 03:33:03;;;;;;;15.50;3.90;;;;;;;9.52;100.00;99838.52;109336;1253;60220;-90
2023/04/21 03:35:33;;;;;;;18.10;4.90;;;;;;;9.49;100.00;99839.59;109004;1252;73749;-89
2023/04/21 03:38:01;;;;;;;20.80;4.90;;;;;;;9.48;100.00;99840.88;109668;1252;64287;-90
2023/04/21 03:40:30;;;;;;;10.90;3.80;;;;;;;9.56;100.00;99841.77;109618;1253;72711;-91
2023/04/21 03:42:57;;;;;;;23.50;4.50;;;;;;;9.66;100.00;99843.16;109645;1253;61726;-91
2023/04/21 03:45:24;;;;;;;13.40;3.80;;;;;;;9.76;100.00;99840.73;109432;1253;60825;-91
2023/04/21 03:47:53;;;;;;;15.40;3.50;;;;;;;9.86;100.00;99840.41;109650;1252;73741;-91
2023/04/21 03:50:21;;;;;;;14.50;4.10;;;;;;;9.94;100.00;99840.69;109707;1252;63809;-89
2023/04/21 03:56:03;;;;;;;14.60;3.50;;;;;;;10.02;100.00;99841.24;105126;1261;60609;-92
2023/04/21 03:58:31;;;;;;;11.10;3.50;;;;;;;10.01;100.00;99839.73;105716;1264;60875;-92
2023/04/21 04:00:58;;;;;;;12.10;3.90;;;;;;;10.01;100.00;99836.07;105748;1264;74579;-91
2023/04/21 04:03:27;;;;;;;14.60;3.30;;;;;;;10.01;100.00;99836.72;105816;1264;63847;-91
2023/04/21 04:05:55;;;;;;;15.40;4.50;;;;;;;10.00;100.00;99836.06;105771;1264;72553;-90
2023/04/21 04:08:22;;;;;;;13.10;3.90;;;;;;;10.03;100.00;99838.00;105428;1264;61701;-92
2023/04/21 04:10:49;;;;;;;13.10;4.30;;;;;;;10.05;100.00;99834.87;105479;1267;60478;-90
2023/04/21 04:13:17;;;;;;;9.50;3.50;;;;;;;10.09;100.00;99833.67;105511;1264;74046;-91
2023/04/21 04:15:45;;;;;;;11.20;4.10;;;;;;;10.11;100.00;99831.84;106735;1264;63630;-90
2023/04/21 04:18:13;;;;;;;14.80;4.10;;;;;;;10.07;100.00;99830.00;105455;1265;73951;-89
2023/04/21 04:20:40;;;;;;;14.30;4.10;;;;;;;10.03;100.00;99829.77;106228;1264;61758;-91
2023/04/21 04:23:07;;;;;;;19.30;3.60;;;;;;;9.99;100.00;99827.95;105719;1264;62182;-88
2023/04/21 04:25:36;;;;;;;19.00;4.30;;;;;;;9.93;100.00;99827.45;105831;1270;74207;-90
2023/04/21 04:28:06;;;;;;;20.70;3.90;;;;;;;9.89;100.00;99827.06;107682;1264;62371;-88
2023/04/21 04:30:34;;;;;;;16.40;3.40;;;;;;;9.87;100.00;99826.02;107880;1264;72524;-89
2023/04/21 04:33:01;;;;;;;15.90;3.70;;;;;;;9.89;100.00;99824.95;106785;1264;61442;-90
2023/04/21 04:35:29;;;;;;;14.20;3.40;;;;;;;9.90;100.00;99826.68;105703;1267;60578;-90
2023/04/21 04:37:56;;;;;;;10.30;3.10;;;;;;;9.88;100.00;99829.80;105537;1265;73793;-90
2023/04/21 04:40:24;;;;;;;16.20;4.40;;;;;;;9.85;100.00;99833.34;105674;1270;63797;-93
2023/04/21 04:42:51;;;;;;;16.80;3.30;;;;;;;9.82;100.00;99828.63;105639;1263;73450;-90
2023/04/21 04:45:20;;;;;;;11.60;3.70;;;;;;;9.73;100.00;99825.88;106056;1265;62090;-91
2023/04/21 04:47:50;;;;;;;14.90;5.50;;;;;;;9.67;100.00;99824.95;106021;1264;61230;-90
2023/04/21 04:50:18;;;;;;;17.00;3.90;;;;;;;9.66;100.00;99821.48;106309;1264;74452;-91
2023/04/21 04:52:48;;;;;;;13.60;3.70;;;;;;;9.68;100.00;99824.34;106564;1266;63817;-92
2023/04/21 04:55:15;;;;;;;13.70;4.10;;;;;;;9.70;100.00;99822.61;107793;1264;72831;-89
2023/04/21 04:57:43;;;;;;;14.20;4.30;;;;;;;9.73;100.00;99824.50;107432;1264;62084;-90
2023/04/21 05:00:10;;;;;;;10.90;4.10;;;;;;;9.75;100.00;99824.71;108302;1263;60909;-89
2023/04/21 05:02:38;;;;;;;12.90;4.30;;;;;;;9.74;100.00;99824.61;108906;1264;73894;-90
2023/04/21 05:05:06;;;;;;;19.50;5.00;;;;;;;9.78;100.00;99823.85;108119;1264;63543;-91
2023/04/21 05:07:34;;;;;;;15.20;4.50;;;;;;;9.83;100.00;99823.30;108249;1263;72400;-90
2023/04/21 05:10:03;;;;;;;20.70;4.70;;;;;;;9.89;100.00;99822.17;108813;1264;61798;-90
2023/04/21 05:12:39;;;;;;;16.10;4.30;;;;;;;9.97;100.00;99824.27;108726;1264;60082;-91
2023/04/21 05:15:06;;;;;;;13.10;4.40;;;;;;;10.00;100.00;99823.38;108806;1263;73820;-92
2023/04/21 05:17:34;;;;;;;14.30;5.80;;;;;;;9.99;100.00;99825.36;108862;1263;63885;-90
2023/04/21 05:20:04;;;;;;;21.10;5.10;;;;;;;10.00;100.00;99827.05;108848;1264;72626;-92
2023/04/21 05:22:31;;;;;;;16.70;5.10;;;;;;;10.00;100.00;99826.52;108902;1264;60064;-91
2023/04/21 05:25:50;;;;;;;19.80;6.80;;;;;;;9.92;100.00;99826.18;106178;1291;612929;-91
2023/04/21 05:28:19;;;;;;;14.40;4.50;;;;;;;9.83;100.00;99822.94;108671;1263;61710;-90
2023/04/21 05:30:46;;;;;;;13.60;4.30;;;;;;;9.82;100.00;99824.09;107563;1263;59142;-91
2023/04/21 05:33:13;;;;;;;16.80;4.20;;;;;;;9.77;100.00;99822.73;107162;1263;72214;-88
2023/04/21 05:35:42;;;;;;;12.40;3.90;;;;;;;9.71;100.00;99823.42;107049;1263;63053;-90
2023/04/21 05:38:10;;;;;;;14.80;3.70;;;;;;;9.68;100.00;99819.48;106774;1262;570411;-91
2023/04/21 05:40:37;;;;;;;31.20;5.10;;;;;;;9.69;100.00;99815.04;106303;1260;63324;-94
2023/04/21 05:43:05;;;;;;;18.10;5.40;;;;;;;9.76;100.00;99814.73;106733;1257;60020;-91
2023/04/21 05:45:32;;;;;;;12.50;4.10;;;;;;;9.81;100.00;99810.88;106553;1256;73730;-92
2023/04/21 05:48:00;;;;;;;20.10;5.40;;;;;;;9.87;100.00;99816.22;107314;1262;63684;-91
2023/04/21 06:02:11;;;;;;;23.40;4.50;;;;;;;10.10;100.00;99807.66;105929;1290;599908;-88
2023/04/21 06:04:41;;;;;;;22.10;5.70;;;;;;;10.10;100.00;99806.75;108451;1265;62045;-88
2023/04/21 06:07:12;;;;;;;13.60;4.20;;;;;;;10.14;100.00;99805.39;108446;1257;59385;-91
2023/04/21 06:09:50;;;;;;;14.30;4.40;;;;;;;10.14;100.00;99803.27;107925;1258;73248;-90
2023/04/21 06:12:18;;;;;;;15.90;4.20;;;;;;;10.16;100.00;99803.52;107844;1257;63735;-92
2023/04/21 06:14:48;;;;;;;17.20;4.00;;;;;;;10.25;100.00;99805.70;106738;1257;619290;-92
2023/04/21 06:17:18;;;;;;;15.50;4.50;;;;;;;10.35;100.00;99807.09;108236;1257;63000;-91
2023/04/21 06:19:51;;;;;;;19.70;4.70;;;;;;;10.46;100.00;99809.64;108464;1256;59978;-88
2023/04/21 06:22:25;;;;;;;17.30;4.00;;;;;;;10.52;100.00;99812.00;108378;1256;72412;-88
2023/04/21 06:24:54;;;;;;;14.50;5.10;;;;;;;10.53;100.00;99814.02;106930;1254;64539;-93
2023/04/21 06:27:25;;;;;;;22.00;6.80;;;;;;;10.53;100.00;99813.64;107406;1251;72635;-92
2023/04/21 06:29:55;;;;;;;12.00;4.20;;;;;;;10.58;100.00;99819.39;107479;1257;61633;-93
2023/04/21 06:35:29;;;;;;;16.20;5.10;;;;;;;10.76;100.00;99820.02;105217;1282;616188;-88
2023/04/21 06:38:26;;;;;;;10.90;4.40;;;;;;;10.79;100.00;99823.45;107380;1266;60437;-90
2023/04/21 06:41:06;;;;;;;12.50;4.40;;;;;;;10.82;100.00;99823.23;106726;1266;60579;-90
2023/04/21 06:43:35;;;;;;;18.20;5.50;;;;;;;10.86;100.00;99822.46;106144;1261;72250;-91
2023/04/21 06:46:05;;;;;;;22.40;4.90;;;;;;;10.94;100.00;99826.17;106512;1254;65376;-89
2023/04/21 06:48:34;;;;;;;12.50;5.10;;;;;;;11.02;100.00;99827.17;105912;1252;757310;-90
2023/04/21 06:51:01;;;;;;;16.10;5.00;;;;;;;11.12;100.00;99829.77;106284;1255;60323;-91
2023/04/21 06:53:29;;;;;;;11.00;4.50;;;;;;;11.21;100.00;99832.02;106695;1255;60241;-89
2023/04/21 06:55:56;;;;;;;17.90;5.30;;;;;;;11.27;100.00;99831.97;106443;1256;72213;-89
2023/04/21 06:58:23;;;;;;;19.10;6.10;;;;;;;11.31;100.00;99830.59;106375;1253;64564;-89
2023/04/21 07:00:50;;;;;;;17.10;5.00;;;;;;;11.31;100.00;99831.98;106368;1255;73621;-90
2023/04/21 07:03:17;;;;;;;22.80;5.50;;;;;;;11.31;100.00;99832.02;106698;1255;62919;-92
2023/04/21 07:05:44;;;;;;;19.80;4.80;;;;;;;11.29;100.00;99830.92;106296;1262;59853;-91
2023/04/21 07:08:11;;;;;;;15.70;5.20;;;;;;;11.26;100.00;99831.20;106592;1255;73157;-90
2023/04/21 07:10:40;;;;;;;19.80;5.70;;;;;;;11.22;100.00;99828.67;106649;1257;65169;-89
2023/04/21 07:13:07;;;;;;;23.80;6.40;;;;;;;11.24;100.00;99828.71;108170;1253;72227;-90
2023/04/21 07:15:36;;;;;;;22.60;5.80;;;;;;;11.30;100.00;99823.69;107373;1254;61087;-91
2023/04/21 07:18:03;;;;;;;14.80;5.80;;;;;;;11.36;100.00;99828.50;106813;1253;60142;-92
2023/04/21 07:20:30;;;;;;;18.00;5.90;;;;;;;11.36;100.00;99825.99;106469;1259;72899;-91
2023/04/21 07:23:01;;;;;;;15.30;5.50;;;;;;;11.32;100.00;99824.04;106432;1255;63913;-91
2023/04/21 07:25:28;;;;;;;21.30;5.60;;;;;;;11.30;100.00;99823.69;106647;1253;72576;-90
2023/04/21 07:27:55;;;;;;;21.40;5.80;;;;;;;11.28;100.00;99823.66;106938;1256;62633;-89
2023/04/21 07:30:22;;;;;;;23.40;6.50;;;;;;;11.29;100.00;99821.48;107032;1252;61292;-91
2023/04/21 07:32:49;;;;;;;18.50;6.20;;;;;;;11.34;100.00;99821.10;106837;1253;73949;-88
2023/04/21 07:35:18;;;;;;;21.80;7.50;;;;;;;11.40;100.00;99818.56;107382;1253;63735;-89
2023/04/21 07:37:46;;;;;;;20.90;7.60;;;;;;;11.40;100.00;99815.72;108273;1252;72364;-89
2023/04/21 07:40:14;;;;;;;24.40;6.90;;;;;;;11.44;100.00;99814.77;108532;1253;60308;-90
2023/04/21 07:42:41;;;;;;;22.20;6.90;;;;;;;11.49;100.00;99821.22;107498;1253;60227;-89
2023/04/21 07:45:11;;;;;;;23.50;7.20;;;;;;;11.52;100.00;99820.77;107154;1253;73118;-90
2023/04/21 07:47:38;;;;;;;20.00;6.70;;;;;;;11.54;100.00;99823.30;107184;1254;64431;-92
2023/04/21 07:50:08;;;;;;;17.80;6.60;;;;;;;11.56;100.00;99823.27;107569;1253;72170;-90
2023/04/21 07:52:35;;;;;;;26.10;7.30;;;;;;;11.59;100.00;99824.79;108102;1253;61651;-91
2023/04/21 07:55:02;;;;;;;18.40;6.00;;;;;;;11.62;100.00;99828.39;109176;1251;60310;-89
2023/04/21 07:57:32;;;;;;;20.30;7.40;;;;;;;11.68;100.00;99829.40;107824;1255;71888;-92
2023/04/21 08:00:00;;;;;;;18.20;5.80;;;;;;;11.71;100.00;99827.36;106968;1253;64421;-90
2023/04/21 08:02:27;;;;;;;21.80;7.70;;;;;;;11.74;100.00;99828.16;107278;1255;73471;-86
2023/04/21 08:04:54;;;;;;;19.80;7.70;;;;;;;11.78;100.00;99825.95;106993;1253;60138;-90
2023/04/21 08:07:21;;;;;;;22.10;6.90;;;;;;;11.84;100.00;99824.24;106600;1251;60098;-91
2023/04/21 08:09:49;;;;;;;22.50;6.00;;;;;;;11.94;100.00;99826.02;106560;1254;73468;-90
2023/04/21 08:12:17;;;;;;;12.20;5.60;;;;;;;12.04;100.00;99825.20;106678;1253;63846;-91
2023/04/21 08:14:47;;;;;;;20.70;5.60;;;;;;;12.12;100.00;99822.05;106801;1253;73149;-89
2023/04/21 08:17:15;;;;;;;16.50;6.00;;;;;;;12.19;100.00;99825.42;106808;1251;61681;-88
2023/04/21 08:19:43;;;;;;;17.90;4.80;;;;;;;12.23;100.00;99823.83;106608;1253;61246;-92
2023/04/21 08:22:10;;;;;;;17.30;5.30;;;;;;;12.26;100.00;99825.02;106694;1252;74153;-89
2023/04/21 08:24:37;;;;;;;13.70;5.00;;;;;;;12.29;100.00;99824.85;106665;1257;64768;-90
2023/04/21 08:27:04;;;;;;;18.20;4.80;;;;;;;12.29;100.00;99831.23;106774;1252;72611;-89
2023/04/21 08:29:31;;;;;;;20.00;5.00;;;;;;;12.29;100.00;99832.30;106577;1257;60149;-88
2023/04/21 08:31:58;;;;;;;15.40;5.00;;;;;;;12.30;100.00;99831.23;106434;1253;59999;-90
2023/04/21 08:34:29;;;;;;;148.60;120.70;;;;;;;12.29;100.00;99828.11;106415;1253;74044;-90
2023/04/21 08:36:58;;;;;;;36.00;13.60;;;;;;;12.31;100.00;99827.61;106535;1252;62652;-88
2023/04/21 08:39:25;;;;;;;65.10;36.80;;;;;;;12.29;100.00;99821.95;106297;1251;74392;-88
2023/04/21 08:41:52;;;;;;;50.60;28.90;;;;;;;12.30;100.00;99824.53;106288;1255;61821;-89
2023/04/21 08:44:20;;;;;;;20.40;4.90;;;;;;;12.28;100.00;99825.75;106152;1253;59562;-89
2023/04/21 08:46:51;;;;;;;17.80;5.50;;;;;;;12.24;100.00;99822.35;106965;1255;74003;-90
2023/04/21 08:49:19;;;;;;;15.40;4.50;;;;;;;12.25;100.00;99827.05;107417;1255;63733;-90
2023/04/21 08:51:47;;;;;;;32.70;16.20;;;;;;;12.28;100.00;99825.73;106939;1253;72382;-92
2023/04/21 08:54:14;;;;;;;21.20;8.80;;;;;;;12.31;100.00;99825.16;106875;1253;60873;-91
2023/04/21 08:56:42;;;;;;;15.10;5.70;;;;;;;12.35;100.00;99825.38;106427;1252;60019;-90
2023/04/21 08:59:10;;;;;;;14.00;5.10;;;;;;;12.37;100.00;99825.20;106430;1253;73025;-90
2023/04/21 09:02:13;;;;;;;13.30;4.30;;;;;;;12.40;100.00;99826.16;106371;1257;65334;-90
2023/04/21 09:04:46;;;;;;;22.50;6.00;;;;;;;12.40;100.00;99828.82;106845;1254;74012;-89
2023/04/21 09:07:30;;;;;;;16.10;4.20;;;;;;;12.37;100.00;99832.24;107179;1253;60722;-90
2023/04/21 09:09:59;;;;;;;11.20;4.80;;;;;;;12.34;100.00;99830.66;108020;1253;60216;-89
2023/04/21 09:12:28;;;;;;;11.90;4.50;;;;;;;12.35;100.00;99823.95;107480;1252;73790;-86
2023/04/21 09:14:58;;;;;;;17.30;5.40;;;;;;;12.38;100.00;99826.50;106804;1253;65025;-90
2023/04/21 09:17:32;;;;;;;12.90;5.10;;;;;;;12.36;100.00;99822.25;107276;1255;72636;-87
2023/04/21 09:20:11;;;;;;;19.40;5.10;;;;;;;12.30;100.00;99821.41;108475;1252;60716;-88
2023/04/21 09:22:38;;;;;;;20.70;4.50;;;;;;;12.22;100.00;99822.89;109112;1253;60143;-88
2023/04/21 09:25:06;;;;;;;16.80;4.80;;;;;;;12.18;100.00;99819.36;106967;1256;73072;-90
2023/04/21 09:27:36;;;;;;;20.10;5.00;;;;;;;12.16;100.00;99815.62;106817;1253;64864;-87
2023/04/21 09:30:07;;;;;;;11.40;4.60;;;;;;;12.20;100.00;99815.88;106524;1258;74323;-90
2023/04/21 09:32:38;;;;;;;16.00;4.50;;;;;;;12.28;100.00;99814.02;106627;1252;61785;-88
2023/04/21 09:35:09;;;;;;;15.50;3.50;;;;;;;12.41;100.00;99813.50;106422;1254;61653;-89
2023/04/21 09:37:37;;;;;;;22.00;4.70;;;;;;;12.53;100.00;99805.65;106338;1253;73510;-89
2023/04/21 09:40:06;;;;;;;19.00;4.60;;;;;;;12.68;100.00;99815.36;106340;1255;63572;-89
2023/04/21 09:42:34;;;;;;;13.70;5.10;;;;;;;12.80;100.00;99812.42;106289;1254;73605;-87
2023/04/21 09:45:09;;;;;;;13.80;4.80;;;;;;;12.95;100.00;99813.64;106335;1253;61455;-91
2023/04/21 09:48:00;;;;;;;14.90;4.80;;;;;;;13.14;100.00;99813.09;106914;1253;60658;-89
2023/04/21 09:50:32;;;;;;;15.70;4.80;;;;;;;13.30;100.00;99812.48;108063;1254;72991;-89
2023/04/21 09:53:20;;;;;;;17.60;4.60;;;;;;;13.37;100.00;99813.48;108003;1253;64551;-89
2023/04/21 09:55:49;;;;;;;15.80;4.80;;;;;;;13.35;100.00;99816.46;106952;1253;72105;-90
2023/04/21 09:58:19;;;;;;;17.20;5.30;;;;;;;13.32;100.00;99817.77;106779;1253;60742;-87
2023/04/21 10:00:46;;;;;;;17.20;5.70;;;;;;;13.25;100.00;99815.33;107188;1253;61503;-88
2023/04/21 10:03:13;;;;;;;17.60;5.20;;;;;;;13.18;100.00;99816.08;106904;1253;73979;-87
2023/04/21 10:05:41;;;;;;;16.70;4.60;;;;;;;13.15;100.00;99817.63;106753;1252;62753;-85
2023/04/21 10:08:10;;;;;;;13.90;4.50;;;;;;;13.14;100.00;99815.77;106746;1253;74136;-88
2023/04/21 10:10:38;;;;;;;14.20;5.80;;;;;;;13.13;100.00;99812.98;107094;1253;62716;-89
2023/04/21 10:13:17;;;;;;;15.30;6.60;;;;;;;13.15;100.00;99809.49;107109;1254;60331;-89
2023/04/21 10:15:45;;;;;;;14.20;4.10;;;;;;;13.15;100.00;99812.64;107179;1252;72857;-88
2023/04/21 10:18:15;;;;;;;26.50;4.90;;;;;;;13.13;100.00;99816.34;107149;1253;64768;-89
2023/04/21 10:20:55;;;;;;;15.60;5.70;;;;;;;13.11;100.00;99813.54;107063;1252;73380;-87
2023/04/21 10:23:36;;;;;;;18.40;4.80;;;;;;;13.18;100.00;99814.55;107065;1255;61584;-90
2023/04/21 10:26:05;;;;;;;12.50;3.90;;;;;;;13.25;100.00;99816.04;106857;1254;59729;-90
2023/04/21 10:28:40;;;;;;;13.30;4.40;;;;;;;13.30;100.00;99816.59;106631;1253;74058;-88
2023/04/21 10:31:20;;;;;;;12.70;4.00;;;;;;;13.30;100.00;99819.51;106804;1256;64570;-88
2023/04/21 10:34:12;;;;;;;19.00;4.10;;;;;;;13.33;100.00;99818.23;106634;1255;73675;-89
2023/04/21 10:36:46;;;;;;;15.40;3.80;;;;;;;13.36;100.00;99821.83;106804;1253;63080;-87
2023/04/21 10:39:37;;;;;;;13.10;4.50;;;;;;;13.35;100.00;99824.00;106648;1256;61167;-87
2023/04/21 10:42:35;;;;;;;12.50;3.90;;;;;;;13.33;100.00;99825.40;106649;1255;73930;-87
2023/04/21 10:45:43;;;;;;;19.30;5.30;;;;;;;13.26;99.93;99827.00;108298;1253;63665;-87
2023/04/21 10:48:15;;;;;;;18.70;4.20;;;;;;;13.20;100.00;99827.67;108268;1252;71616;-87
2023/04/21 10:50:44;;;;;;;15.50;5.30;;;;;;;13.17;100.00;99828.98;107591;1253;60415;-86
2023/04/21 10:53:11;;;;;;;10.00;4.50;;;;;;;13.12;100.00;99828.54;107423;1252;61402;-88
2023/04/21 10:55:41;;;;;;;14.90;4.00;;;;;;;13.06;100.00;99829.89;108108;1254;74813;-87
2023/04/21 10:58:08;;;;;;;17.90;4.90;;;;;;;12.98;100.00;99833.38;107851;1255;64729;-88
2023/04/21 11:00:37;;;;;;;11.50;3.80;;;;;;;12.88;100.00;99831.05;107649;1253;74163;-86
2023/04/21 11:03:07;;;;;;;12.80;5.10;;;;;;;12.80;100.00;99834.16;107658;1257;60581;-88
2023/04/21 11:08:55;;;;;;;11.50;3.80;;;;;;;12.66;100.00;99841.92;107984;1255;73872;-88
2023/04/21 11:16:05;;;;;;;12.10;4.10;;;;;;;12.44;100.00;99843.00;108505;1256;71582;-87
2023/04/21 11:18:37;;;;;;;10.70;3.70;;;;;;;12.43;100.00;99842.44;107760;1262;62843;-90
2023/04/21 11:21:43;;;;;;;15.20;4.60;;;;;;;12.43;100.00;99844.33;108725;1256;60852;-89
2023/04/21 11:24:31;;;;;;;15.50;5.20;;;;;;;12.56;100.00;99845.79;108471;1256;72810;-88
2023/04/21 11:27:26;;;;;;;11.70;6.20;;;;;;;12.70;100.00;99848.45;108601;1256;63719;-87
2023/04/21 11:29:57;;;;;;;13.30;4.20;;;;;;;12.81;100.00;99848.83;108088;1260;73437;-91
2023/04/21 11:32:24;;;;;;;13.20;4.40;;;;;;;12.83;100.00;99847.27;106571;1263;61402;-88
2023/04/21 11:34:54;;;;;;;13.60;5.40;;;;;;;12.80;100.00;99851.86;107451;1256;60458;-89
2023/04/21 11:37:28;;;;;;;9.30;3.90;;;;;;;12.76;100.00;99851.30;107416;1257;73824;-88
2023/04/21 11:39:57;;;;;;;14.90;4.30;;;;;;;12.73;100.00;99854.23;107331;1257;64485;-87
2023/04/21 11:42:27;;;;;;;8.40;3.40;;;;;;;12.71;100.00;99855.83;106586;1256;72976;-88
2023/04/21 11:44:55;;;;;;;7.50;3.00;;;;;;;12.71;100.00;99856.52;108095;1256;62221;-89
2023/04/21 11:48:23;;;;;;;9.60;3.50;;;;;;;12.77;100.00;99853.35;104105;1293;614749;-89
2023/04/21 11:50:54;;;;;;;10.40;2.90;;;;;;;12.85;100.00;99857.06;108885;1260;58772;-85